ADDS METAR Data INFO
IDs: Format: Raw Decoded Include TAF

Data at: 1957 UTC 15 Dec 2017

KCZL 151935Z AUTO 33006KT 10SM CLR 03/M06 A3013 RMK AO2 T00321058
KCZL 151915Z AUTO 32007KT 10SM CLR 03/M06 A3014 RMK AO2 T00331057
KCZL 151855Z AUTO 33010KT 10SM CLR 03/M05 A3014 RMK AO2 T00301055
KCZL 151835Z AUTO 32009KT 10SM CLR 03/M05 A3014 RMK AO2 T00311054
KCZL 151815Z AUTO 32009KT 10SM CLR 03/M05 A3013 RMK AO2 T00301055
KCZL 151755Z AUTO 31008KT 10SM CLR 03/M05 A3015 RMK AO2 T00291054 10033 21007
KCZL 151735Z AUTO 33010KT 10SM CLR 03/M06 A3015 RMK AO2 T00251056
KCZL 151715Z AUTO 30010KT 10SM SCT031 03/M05 A3015 RMK AO2 T00291054
KCZL 151655Z AUTO 34009G15KT 10SM SCT031 03/M05 A3017 RMK AO2 T00331053
KCZL 151635Z AUTO 34010G14KT 10SM CLR 03/M05 A3015 RMK AO2 T00271054
KCZL 151615Z AUTO 35008G14KT 10SM CLR 03/M05 A3015 RMK AO2 T00261052
KCZL 151555Z AUTO 34012KT 10SM CLR 02/M05 A3015 RMK AO2 T00201053
KCZL 151535Z AUTO 32012KT 10SM CLR 02/M05 A3014 RMK AO2 T00221052
KCZL 151515Z AUTO 34008G14KT 10SM CLR 02/M05 A3014 RMK AO2 T00201051
KCZL 151455Z AUTO 34007KT 10SM CLR 02/M05 A3012 RMK AO2 T00201051
KCZL 151435Z AUTO 34009KT 10SM CLR 02/M05 A3011 RMK AO2 T00211046
KCZL 151415Z AUTO 35006KT 10SM CLR 02/M04 A3011 RMK AO2 T00211036
KCZL 151355Z AUTO 34004KT 10SM CLR 01/M03 A3009 RMK AO2 T00111030
KCZL 151335Z AUTO 00000KT 10SM CLR 00/M03 A3009 RMK AO2 T00041028
KCZL 151315Z AUTO 00000KT 10SM CLR 00/M03 A3008 RMK AO2 T00001028
KCZL 151255Z AUTO 00000KT 10SM CLR 00/M03 A3007 RMK AO2 T10031030
KCZL 151235Z AUTO 00000KT 10SM CLR 00/M03 A3007 RMK AO2 T10051030
KCZL 151215Z AUTO 00000KT 10SM CLR 00/M03 A3006 RMK AO2 T10051031
KCZL 151155Z AUTO 00000KT 10SM CLR 00/M03 A3006 RMK AO2 T10011031 10050 21005
KCZL 151135Z AUTO 00000KT 10SM CLR 00/M03 A3005 RMK AO2 T10021031
KCZL 151115Z AUTO 33003KT 10SM CLR 01/M03 A3004 RMK AO2 T00051030
KCZL 151055Z AUTO 34003KT 10SM CLR 01/M03 A3004 RMK AO2 T00091030
KCZL 151035Z AUTO 00000KT 10SM CLR 01/M03 A3004 RMK AO2 T00101030
KCZL 151015Z AUTO 32003KT 10SM CLR 02/M03 A3004 RMK AO2 T00151030
KCZL 150955Z AUTO 34004KT 10SM CLR 02/M03 A3004 RMK AO2 T00191029
KCZL 150935Z AUTO 35005KT 10SM CLR 02/M03 A3004 RMK AO2 T00231027
KCZL 150915Z AUTO 35004KT 10SM CLR 03/M03 A3004 RMK AO2 T00261026
KCZL 150855Z AUTO 35004KT 10SM CLR 03/M02 A3004 RMK AO2 T00301025
KCZL 150835Z AUTO 35006KT 10SM CLR 04/M02 A3004 RMK AO2 T00351025
KCZL 150815Z AUTO 35005KT 10SM CLR 04/M02 A3003 RMK AO2 T00381025
KCZL 150755Z AUTO 36007KT 10SM CLR 04/M02 A3002 RMK AO2 T00401025
KCZL 150735Z AUTO 36005KT 10SM CLR 04/M02 A3002 RMK AO2 T00411025
KCZL 150715Z AUTO 36006KT 10SM CLR 04/M02 A3002 RMK AO2 T00421024
KCZL 150655Z AUTO 02007KT 10SM CLR 05/M02 A3003 RMK AO2 T00451023
KCZL 150635Z AUTO 02004KT 10SM CLR 05/M02 A3002 RMK AO2 T00481023
KCZL 150615Z AUTO 36005KT 10SM CLR 05/M02 A3003 RMK AO2 T00491021
KCZL 150555Z AUTO 34006KT 10SM CLR 05/M02 A3003 RMK AO2 T00511020 10072 20026 401501020
KCZL 150535Z AUTO 35005KT 10SM SCT120 05/M02 A3002 RMK AO2 T00531020
KCZL 150515Z AUTO 34004KT 10SM SCT120 06/M02 A3002 RMK AO2 T00551019
KCZL 150455Z AUTO 36006KT 10SM CLR 06/M02 A3002 RMK AO2 T00561020
KCZL 150435Z AUTO 36004KT 10SM CLR 06/M02 A3002 RMK AO2 T00591018
KCZL 150415Z AUTO 36005KT 10SM CLR 06/M02 A3002 RMK AO2 T00611016
KCZL 150355Z AUTO 01004KT 10SM CLR 06/M01 A3002 RMK AO2 T00631015
KCZL 150335Z AUTO 01005KT 10SM CLR 06/M01 A3002 RMK AO2 T00601008
KCZL 150315Z AUTO 02004KT 10SM CLR 04/00 A3002 RMK AO2 T00361002
KCZL 150255Z AUTO 00000KT 10SM CLR 03/00 A3000 RMK AO2 T00331005
KCZL 150235Z AUTO 00000KT 10SM CLR 03/00 A3000 RMK AO2 T00281005
KCZL 150215Z AUTO 00000KT 10SM CLR 03/M01 A3000 RMK AO2 T00301008
KCZL 150155Z AUTO 00000KT 10SM CLR 03/M01 A3000 RMK AO2 T00301007
KCZL 150135Z AUTO 00000KT 10SM CLR 03/M01 A3000 RMK AO2 T00311006
KCZL 150115Z AUTO 18003KT 10SM CLR 04/M01 A2998 RMK AO2 T00351009
KCZL 150055Z AUTO 00000KT 10SM CLR 04/M01 A2998 RMK AO2 T00401012
KCZL 150035Z AUTO 19003KT 10SM CLR 04/M01 A2997 RMK AO2 T00441013
KCZL 150015Z AUTO 00000KT 10SM CLR 06/M02 A2997 RMK AO2 T00561019
KCZL 142355Z AUTO 00000KT 10SM CLR 07/M02 A2996 RMK AO2 T00731021 10150 20073
KCZL 142335Z AUTO 00000KT 10SM CLR 09/M03 A2995 RMK AO2 T00941031
KCZL 142315Z AUTO 31005KT 10SM CLR 10/M03 A2995 RMK AO2 T00991028
KCZL 142255Z AUTO 32005KT 10SM CLR 10/M02 A2994 RMK AO2 T01041022
KCZL 142235Z AUTO 30005KT 10SM CLR 11/M02 A2994 RMK AO2 T01121020
KCZL 142215Z AUTO 30003KT 10SM CLR 13/M03 A2993 RMK AO2 T01321027
KCZL 142155Z AUTO 29004KT 10SM CLR 14/M03 A2993 RMK AO2 T01401029
KCZL 142135Z AUTO 30006KT 10SM CLR 14/M03 A2993 RMK AO2 T01431029
KCZL 142115Z AUTO 34004KT 10SM CLR 15/M02 A2993 RMK AO2 T01481021
KCZL 142055Z AUTO 29003KT 10SM CLR 15/M02 A2993 RMK AO2 T01461023
KCZL 142035Z AUTO 30005KT 10SM CLR 15/M02 A2993 RMK AO2 T01461025
KCZL 142015Z AUTO 30008KT 10SM CLR 15/M02 A2993 RMK AO2 T01481025
KCZL 141955Z AUTO 00000KT 10SM CLR 15/M02 A2993 RMK AO2 T01471019
KCZL 141935Z AUTO 24003KT 10SM CLR 15/M02 A2993 RMK AO2 T01461021
KCZL 141915Z AUTO 00000KT 10SM CLR 14/M02 A2993 RMK AO2 T01441018
KCZL 141855Z AUTO 31004KT 10SM CLR 14/M02 A2993 RMK AO2 T01371019
KCZL 141835Z AUTO 34006KT 10SM CLR 13/M02 A2993 RMK AO2 T01341021
KCZL 141815Z AUTO 29007KT 10SM CLR 13/M02 A2994 RMK AO2 T01301021
KCZL 141755Z AUTO 23005KT 10SM CLR 13/M02 A2994 RMK AO2 T01271020 10129 21020
KCZL 141735Z AUTO 00000KT 10SM CLR 12/M02 A2994 RMK AO2 T01211021
KCZL 141715Z AUTO 00000KT 10SM CLR 12/M02 A2994 RMK AO2 T01181021
KCZL 141655Z AUTO 00000KT 10SM CLR 11/M02 A2995 RMK AO2 T01081022
KCZL 141635Z AUTO 00000KT 10SM CLR 11/M02 A2995 RMK AO2 T01071023
KCZL 141615Z AUTO 00000KT 10SM CLR 10/M02 A2995 RMK AO2 T01011021
KCZL 141555Z AUTO 30003KT 10SM CLR 10/M02 A2995 RMK AO2 T00961017
KCZL 141535Z AUTO 00000KT 10SM CLR 09/M02 A2994 RMK AO2 T00861017
KCZL 141515Z AUTO 27003KT 10SM CLR 08/M02 A2994 RMK AO2 T00751017
KCZL 141455Z AUTO 27004KT 10SM CLR 07/M02 A2993 RMK AO2 T00701020
KCZL 141435Z AUTO 26004KT 10SM CLR 06/M02 A2993 RMK AO2 T00641019
KCZL 141415Z AUTO 00000KT 10SM CLR 05/M02 A2993 RMK AO2 T00501022
KCZL 141355Z AUTO 00000KT 10SM CLR 02/M02 A2993 RMK AO2 T00221018
KCZL 141335Z AUTO 00000KT 10SM CLR 00/M03 A2992 RMK AO2 T00001026
KCZL 141315Z AUTO 00000KT 10SM CLR M01/M03 A2992 RMK AO2 T10131032
KCZL 141255Z AUTO 00000KT 10SM CLR M02/M04 A2991 RMK AO2 T10171036
KCZL 141235Z AUTO 00000KT 10SM CLR M02/M04 A2991 RMK AO2 T10201037
KCZL 141215Z AUTO 00000KT 10SM CLR M02/M04 A2991 RMK AO2 T10181039
KCZL 141155Z AUTO 00000KT 10SM CLR M02/M04 A2990 RMK AO2 T10161039 10050 21018
KCZL 141135Z AUTO 00000KT 10SM CLR M01/M04 A2988 RMK AO2 T10151038
KCZL 141115Z AUTO 00000KT 10SM CLR M02/M04 A2987 RMK AO2 T10161040
KCZL 141055Z AUTO 00000KT 10SM CLR M01/M04 A2987 RMK AO2 T10131040
KCZL 141035Z AUTO 00000KT 10SM CLR M01/M04 A2986 RMK AO2 T10141038
KCZL 141015Z AUTO 00000KT 10SM CLR M01/M04 A2985 RMK AO2 T10121041
KCZL 140955Z AUTO 00000KT 10SM CLR M01/M04 A2985 RMK AO2 T10101044
KCZL 140935Z AUTO 00000KT 10SM CLR M01/M04 A2986 RMK AO2 T10121043
KCZL 140915Z AUTO 00000KT 10SM CLR M01/M04 A2985 RMK AO2 T10081041
KCZL 140855Z AUTO 08004KT 10SM CLR 00/M04 A2986 RMK AO2 T00001037
KCZL 140835Z AUTO 00000KT 10SM CLR 00/M04 A2986 RMK AO2 T00001040
KCZL 140815Z AUTO 24003KT 10SM CLR 00/M04 A2986 RMK AO2 T10051045